sensor_id;sensor_type;location;lat;lon;timestamp;P1;durP1;ratioP1;P2;durP2;ratioP2
30466;SDS011;17258;52.560;13.046;2023-04-03T00:07:11;1.23;;;0.88;;
30466;SDS011;17258;52.560;13.046;2023-04-03T00:17:12;1.50;;;0.80;;
30466;SDS011;17258;52.560;13.046;2023-04-03T00:27:13;1.33;;;0.80;;
30466;SDS011;17258;52.560;13.046;2023-04-03T00:37:13;1.17;;;0.70;;
30466;SDS011;17258;52.560;13.046;2023-04-03T00:47:15;1.27;;;1.03;;
30466;SDS011;17258;52.560;13.046;2023-04-03T00:57:17;0.93;;;0.80;;
30466;SDS011;17258;52.560;13.046;2023-04-03T01:07:22;2.53;;;0.95;;
30466;SDS011;17258;52.560;13.046;2023-04-03T01:27:32;0.98;;;0.80;;
30466;SDS011;17258;52.560;13.046;2023-04-03T01:37:33;1.03;;;0.87;;
30466;SDS011;17258;52.560;13.046;2023-04-03T01:47:34;0.73;;;0.73;;
30466;SDS011;17258;52.560;13.046;2023-04-03T01:57:34;3.00;;;2.50;;
30466;SDS011;17258;52.560;13.046;2023-04-03T02:07:35;2.72;;;2.50;;
30466;SDS011;17258;52.560;13.046;2023-04-03T02:17:36;3.83;;;3.22;;
30466;SDS011;17258;52.560;13.046;2023-04-03T02:27:37;2.80;;;1.95;;
30466;SDS011;17258;52.560;13.046;2023-04-03T02:37:37;1.37;;;1.13;;
30466;SDS011;17258;52.560;13.046;2023-04-03T02:47:38;1.10;;;1.00;;
30466;SDS011;17258;52.560;13.046;2023-04-03T02:57:39;1.80;;;0.90;;
30466;SDS011;17258;52.560;13.046;2023-04-03T03:07:40;1.70;;;1.00;;
30466;SDS011;17258;52.560;13.046;2023-04-03T03:17:40;1.07;;;0.93;;
30466;SDS011;17258;52.560;13.046;2023-04-03T03:27:41;0.67;;;0.67;;
30466;SDS011;17258;52.560;13.046;2023-04-03T03:37:42;1.27;;;0.87;;
30466;SDS011;17258;52.560;13.046;2023-04-03T03:47:42;2.33;;;1.10;;
30466;SDS011;17258;52.560;13.046;2023-04-03T03:57:43;1.33;;;0.88;;
30466;SDS011;17258;52.560;13.046;2023-04-03T04:07:44;0.87;;;0.87;;
30466;SDS011;17258;52.560;13.046;2023-04-03T04:17:44;1.80;;;1.03;;
30466;SDS011;17258;52.560;13.046;2023-04-03T04:27:45;1.43;;;0.97;;
30466;SDS011;17258;52.560;13.046;2023-04-03T04:37:46;1.00;;;1.00;;
30466;SDS011;17258;52.560;13.046;2023-04-03T04:47:46;1.10;;;1.00;;
30466;SDS011;17258;52.560;13.046;2023-04-03T04:57:47;1.90;;;1.20;;
30466;SDS011;17258;52.560;13.046;2023-04-03T05:07:48;1.90;;;1.23;;
30466;SDS011;17258;52.560;13.046;2023-04-03T05:17:48;1.30;;;1.13;;
30466;SDS011;17258;52.560;13.046;2023-04-03T05:27:50;1.67;;;0.73;;
30466;SDS011;17258;52.560;13.046;2023-04-03T05:37:51;1.45;;;0.80;;
30466;SDS011;17258;52.560;13.046;2023-04-03T05:47:52;0.90;;;0.90;;
30466;SDS011;17258;52.560;13.046;2023-04-03T05:57:52;0.80;;;0.80;;
30466;SDS011;17258;52.560;13.046;2023-04-03T06:07:53;1.50;;;0.97;;
30466;SDS011;17258;52.560;13.046;2023-04-03T06:17:54;1.20;;;1.10;;
30466;SDS011;17258;52.560;13.046;2023-04-03T06:27:55;0.85;;;0.85;;
30466;SDS011;17258;52.560;13.046;2023-04-03T06:37:55;1.77;;;1.10;;
30466;SDS011;17258;52.560;13.046;2023-04-03T06:47:57;3.47;;;1.05;;
30466;SDS011;17258;52.560;13.046;2023-04-03T06:57:57;2.10;;;1.10;;
30466;SDS011;17258;52.560;13.046;2023-04-03T07:07:58;3.33;;;0.93;;
30466;SDS011;17258;52.560;13.046;2023-04-03T07:17:59;2.23;;;0.97;;
30466;SDS011;17258;52.560;13.046;2023-04-03T07:27:59;0.70;;;0.60;;
30466;SDS011;17258;52.560;13.046;2023-04-03T07:38:01;3.42;;;1.13;;
30466;SDS011;17258;52.560;13.046;2023-04-03T07:48:03;1.50;;;0.80;;
30466;SDS011;17258;52.560;13.046;2023-04-03T07:58:04;3.92;;;0.90;;
30466;SDS011;17258;52.560;13.046;2023-04-03T08:08:05;1.33;;;0.90;;
30466;SDS011;17258;52.560;13.046;2023-04-03T08:18:07;1.55;;;1.10;;
30466;SDS011;17258;52.560;13.046;2023-04-03T08:28:08;1.57;;;1.10;;
30466;SDS011;17258;52.560;13.046;2023-04-03T08:38:12;1.42;;;1.00;;
30466;SDS011;17258;52.560;13.046;2023-04-03T08:48:14;0.80;;;0.80;;
30466;SDS011;17258;52.560;13.046;2023-04-03T08:58:28;2.20;;;0.95;;
30466;SDS011;17258;52.560;13.046;2023-04-03T09:19:22;1.50;;;1.10;;
30466;SDS011;17258;52.560;13.046;2023-04-03T09:29:31;1.23;;;0.90;;
30466;SDS011;17258;52.560;13.046;2023-04-03T09:39:49;2.83;;;0.85;;
30466;SDS011;17258;52.560;13.046;2023-04-03T09:50:10;1.10;;;0.80;;
30466;SDS011;17258;52.560;13.046;2023-04-03T10:00:21;2.42;;;2.22;;
30466;SDS011;17258;52.560;13.046;2023-04-03T10:10:37;6.13;;;5.82;;
30466;SDS011;17258;52.560;13.046;2023-04-03T10:20:40;18.70;;;17.35;;
30466;SDS011;17258;52.560;13.046;2023-04-03T10:51:45;20.13;;;18.63;;
30466;SDS011;17258;52.560;13.046;2023-04-03T11:02:16;19.05;;;17.73;;
30466;SDS011;17258;52.560;13.046;2023-04-03T11:12:41;19.45;;;18.05;;
30466;SDS011;17258;52.560;13.046;2023-04-03T11:23:00;23.00;;;18.33;;
30466;SDS011;17258;52.560;13.046;2023-04-03T11:44:33;18.98;;;17.67;;
30466;SDS011;17258;52.560;13.046;2023-04-03T11:54:45;19.10;;;17.80;;
30466;SDS011;17258;52.560;13.046;2023-04-03T12:05:23;19.48;;;18.08;;
30466;SDS011;17258;52.560;13.046;2023-04-03T12:25:47;19.70;;;18.20;;
30466;SDS011;17258;52.560;13.046;2023-04-03T13:06:32;19.33;;;17.92;;
30466;SDS011;17258;52.560;13.046;2023-04-03T13:16:40;19.25;;;17.88;;
30466;SDS011;17258;52.560;13.046;2023-04-03T13:26:41;19.48;;;18.08;;
30466;SDS011;17258;52.560;13.046;2023-04-03T13:36:50;19.52;;;18.13;;
30466;SDS011;17258;52.560;13.046;2023-04-03T13:47:21;19.73;;;18.27;;
30466;SDS011;17258;52.560;13.046;2023-04-03T13:57:22;19.10;;;17.65;;
30466;SDS011;17258;52.560;13.046;2023-04-03T14:07:24;19.50;;;18.10;;
30466;SDS011;17258;52.560;13.046;2023-04-03T14:17:26;19.50;;;18.10;;
30466;SDS011;17258;52.560;13.046;2023-04-03T14:27:38;19.70;;;18.30;;
30466;SDS011;17258;52.560;13.046;2023-04-03T14:37:43;17.58;;;16.38;;
30466;SDS011;17258;52.560;13.046;2023-04-03T14:47:48;19.55;;;18.05;;
30466;SDS011;17258;52.560;13.046;2023-04-03T14:57:54;18.88;;;17.48;;
30466;SDS011;17258;52.560;13.046;2023-04-03T15:07:55;19.60;;;18.20;;
30466;SDS011;17258;52.560;13.046;2023-04-03T15:17:59;19.25;;;17.85;;
30466;SDS011;17258;52.560;13.046;2023-04-03T15:28:01;12.88;;;12.15;;
30466;SDS011;17258;52.560;13.046;2023-04-03T15:38:01;5.00;;;4.80;;
30466;SDS011;17258;52.560;13.046;2023-04-03T15:48:03;4.50;;;4.30;;
30466;SDS011;17258;52.560;13.046;2023-04-03T15:58:04;1.00;;;1.00;;
30466;SDS011;17258;52.560;13.046;2023-04-03T16:08:05;1.88;;;1.10;;
30466;SDS011;17258;52.560;13.046;2023-04-03T16:18:07;3.92;;;2.25;;
30466;SDS011;17258;52.560;13.046;2023-04-03T16:28:09;2.03;;;1.50;;
30466;SDS011;17258;52.560;13.046;2023-04-03T16:38:13;1.03;;;0.80;;
30466;SDS011;17258;52.560;13.046;2023-04-03T16:48:15;1.38;;;1.00;;
30466;SDS011;17258;52.560;13.046;2023-04-03T16:58:15;1.17;;;1.08;;
30466;SDS011;17258;52.560;13.046;2023-04-03T17:08:16;1.35;;;1.05;;
30466;SDS011;17258;52.560;13.046;2023-04-03T17:18:18;1.13;;;0.70;;
30466;SDS011;17258;52.560;13.046;2023-04-03T17:28:19;1.40;;;1.00;;
30466;SDS011;17258;52.560;13.046;2023-04-03T17:38:24;0.95;;;0.68;;
30466;SDS011;17258;52.560;13.046;2023-04-03T17:48:25;2.33;;;1.00;;
30466;SDS011;17258;52.560;13.046;2023-04-03T17:58:26;3.28;;;1.08;;
30466;SDS011;17258;52.560;13.046;2023-04-03T18:08:27;1.00;;;0.80;;
30466;SDS011;17258;52.560;13.046;2023-04-03T18:18:29;1.85;;;0.85;;
30466;SDS011;17258;52.560;13.046;2023-04-03T18:28:30;1.37;;;1.00;;
30466;SDS011;17258;52.560;13.046;2023-04-03T18:38:31;1.27;;;1.00;;
30466;SDS011;17258;52.560;13.046;2023-04-03T18:48:32;1.80;;;0.90;;
30466;SDS011;17258;52.560;13.046;2023-04-03T18:58:34;1.30;;;0.93;;
30466;SDS011;17258;52.560;13.046;2023-04-03T19:08:35;3.00;;;1.25;;
30466;SDS011;17258;52.560;13.046;2023-04-03T19:18:36;29.02;;;21.67;;
30466;SDS011;17258;52.560;13.046;2023-04-03T19:28:37;2.60;;;2.40;;
30466;SDS011;17258;52.560;13.046;2023-04-03T19:38:40;4.45;;;3.53;;
30466;SDS011;17258;52.560;13.046;2023-04-03T19:48:41;2.53;;;2.15;;
30466;SDS011;17258;52.560;13.046;2023-04-03T19:58:42;1.30;;;1.20;;
30466;SDS011;17258;52.560;13.046;2023-04-03T20:08:43;1.10;;;0.95;;
30466;SDS011;17258;52.560;13.046;2023-04-03T20:18:44;2.15;;;1.33;;
30466;SDS011;17258;52.560;13.046;2023-04-03T20:28:44;1.25;;;1.00;;
30466;SDS011;17258;52.560;13.046;2023-04-03T20:38:45;2.40;;;1.27;;
30466;SDS011;17258;52.560;13.046;2023-04-03T20:48:46;2.22;;;1.30;;
30466;SDS011;17258;52.560;13.046;2023-04-03T20:58:47;0.97;;;0.97;;
30466;SDS011;17258;52.560;13.046;2023-04-03T21:19:46;1.13;;;1.05;;
30466;SDS011;17258;52.560;13.046;2023-04-03T21:29:47;0.75;;;0.75;;
30466;SDS011;17258;52.560;13.046;2023-04-03T21:39:48;1.65;;;1.27;;
30466;SDS011;17258;52.560;13.046;2023-04-03T21:49:48;1.13;;;1.00;;
30466;SDS011;17258;52.560;13.046;2023-04-03T21:59:49;1.27;;;0.97;;
30466;SDS011;17258;52.560;13.046;2023-04-03T22:09:50;0.93;;;0.80;;
30466;SDS011;17258;52.560;13.046;2023-04-03T22:19:50;1.15;;;1.00;;
30466;SDS011;17258;52.560;13.046;2023-04-03T22:29:51;0.80;;;0.80;;
30466;SDS011;17258;52.560;13.046;2023-04-03T22:39:52;1.63;;;1.00;;
30466;SDS011;17258;52.560;13.046;2023-04-03T22:49:52;5.30;;;0.90;;
30466;SDS011;17258;52.560;13.046;2023-04-03T22:59:54;1.17;;;0.87;;
30466;SDS011;17258;52.560;13.046;2023-04-03T23:09:54;1.45;;;1.13;;
30466;SDS011;17258;52.560;13.046;2023-04-03T23:19:57;1.10;;;1.00;;
30466;SDS011;17258;52.560;13.046;2023-04-03T23:29:57;1.27;;;0.80;;
30466;SDS011;17258;52.560;13.046;2023-04-03T23:39:58;1.20;;;1.10;;
30466;SDS011;17258;52.560;13.046;2023-04-03T23:50:01;1.65;;;1.38;;
